KMML

Southwest Minnesota Regional Marshall / Ryan Field Airport

Marshall, Minnesota, USA
METAR KMML 161556Z AUTO 35011KT 10SM CLR M04/M07 A3006 RMK AO2 SLP199 T10391072 FZRANO
Observed Flight Rules
Nov-16 @ 15:56 UTC (50 minutes ago) Visual Flight Rules
Wind Visibility Clouds
350° at 11 knots 10 miles
  • Clear skies
Temperatures Readings
Current -4°C / 25°F
Dewpoint -7°C / 19°F
Humidity 80%
Altimeter 30.06" Hg
Pressure 1019.9 hPa
Elevation 359
METAR KMML 161556Z AUTO 35011KT 10SM CLR M04/M07 A3006 RMK AO2 SLP199 T10391072 FZRANO
Observed Flight Rules
Nov-16 @ 15:56 UTC
(50 minutes ago)
VFR
Wind Visibility
350° at 11 knots 10 miles
Clouds
  • Clear skies
Temperature Dewpoint
-4°C / 25°F -7°C / 19°F
Humidity Altimeter Pressure
80% 30.06" Hg 1019.9 hPa